createdAt,value
2022-09-25T00:01:29.811Z,9.50
2022-09-25T00:03:58.098Z,8.68
2022-09-25T00:06:28.583Z,9.40
2022-09-25T00:08:59.708Z,9.10
2022-09-25T00:11:31.109Z,9.05
2022-09-25T00:14:01.040Z,8.70
2022-09-25T00:16:32.074Z,8.43
2022-09-25T00:19:18.381Z,8.60
2022-09-25T00:21:52.088Z,9.85
2022-09-25T00:24:22.482Z,9.32
2022-09-25T00:26:51.301Z,9.80
2022-09-25T00:29:21.552Z,8.05
2022-09-25T00:31:49.699Z,8.80
2022-09-25T00:34:17.923Z,8.38
2022-09-25T00:36:46.156Z,7.68
2022-09-25T00:39:14.327Z,8.85
2022-09-25T00:41:43.932Z,9.40
2022-09-25T00:44:53.336Z,8.70
2022-09-25T00:47:33.886Z,8.20
2022-09-25T00:50:05.922Z,8.95
2022-09-25T00:52:34.221Z,8.70
2022-09-25T00:55:06.820Z,9.32
2022-09-25T00:57:40.602Z,8.07
2022-09-25T01:00:12.617Z,7.15
2022-09-25T01:02:43.997Z,8.20
2022-09-25T01:05:15.669Z,8.60
2022-09-25T01:07:47.971Z,9.13
2022-09-25T01:10:17.625Z,9.38
2022-09-25T01:12:49.656Z,8.90
2022-09-25T01:15:19.748Z,9.50
2022-09-25T01:17:58.027Z,8.80
2022-09-25T01:20:42.093Z,8.32
2022-09-25T01:23:18.649Z,8.43
2022-09-25T01:26:01.569Z,8.55
2022-09-25T01:29:05.883Z,8.05
2022-09-25T01:31:38.954Z,9.13
2022-09-25T01:34:15.632Z,7.90
2022-09-25T01:36:49.845Z,7.90
2022-09-25T01:39:27.158Z,8.77
2022-09-25T01:41:59.953Z,7.80
2022-09-25T01:44:33.617Z,7.40
2022-09-25T01:47:08.638Z,7.20
2022-09-25T01:49:39.909Z,7.20
2022-09-25T01:52:15.125Z,7.10
2022-09-25T01:54:47.159Z,7.32
2022-09-25T01:57:21.022Z,6.93
2022-09-25T01:59:55.338Z,7.50
2022-09-25T02:02:27.416Z,7.10
2022-09-25T02:05:00.508Z,6.90
2022-09-25T02:07:32.006Z,7.32
2022-09-25T02:10:04.888Z,6.55
2022-09-25T02:12:38.264Z,7.15
2022-09-25T02:15:14.660Z,8.05
2022-09-25T02:18:05.130Z,7.60
2022-09-25T02:20:36.546Z,8.15
2022-09-25T02:23:14.254Z,8.07
2022-09-25T02:25:46.189Z,6.85
2022-09-25T02:28:14.371Z,7.07
2022-09-25T02:30:46.090Z,7.22
2022-09-25T02:33:14.408Z,7.32
2022-09-25T02:35:42.889Z,7.15
2022-09-25T02:38:11.188Z,7.60
2022-09-25T02:40:45.376Z,7.72
2022-09-25T02:43:26.714Z,8.45
2022-09-25T02:46:08.628Z,8.10
2022-09-25T02:48:46.843Z,7.22
2022-09-25T02:51:21.848Z,8.23
2022-09-25T02:53:55.145Z,7.05
2022-09-25T02:56:30.267Z,7.30
2022-09-25T02:59:02.456Z,6.95
2022-09-25T03:01:35.247Z,6.35
2022-09-25T03:04:06.694Z,6.68
2022-09-25T03:06:35.253Z,6.72
2022-09-25T03:09:04.427Z,6.85
2022-09-25T03:11:32.689Z,6.50
2022-09-25T03:14:02.715Z,6.70
2022-09-25T03:16:37.370Z,7.20
2022-09-25T03:19:05.645Z,6.30
2022-09-25T03:21:33.984Z,6.68
2022-09-25T03:24:02.244Z,6.15
2022-09-25T03:26:30.644Z,6.15
2022-09-25T03:29:02.481Z,5.95
2022-09-25T03:31:31.581Z,7.00
2022-09-25T03:34:01.838Z,7.38
2022-09-25T03:36:31.947Z,6.78
2022-09-25T03:39:00.660Z,6.53
2022-09-25T03:41:30.958Z,6.13
2022-09-25T03:44:00.060Z,6.95
2022-09-25T03:46:29.567Z,5.82
2022-09-25T03:48:58.804Z,6.40
2022-09-25T03:51:30.316Z,6.50
2022-09-25T03:53:58.986Z,6.78
2022-09-25T03:56:29.882Z,5.90
2022-09-25T03:58:59.492Z,7.13
2022-09-25T04:01:29.070Z,6.57
2022-09-25T04:03:57.530Z,7.45
2022-09-25T04:06:27.965Z,6.75
2022-09-25T04:08:56.378Z,6.65
2022-09-25T04:11:25.401Z,6.82
2022-09-25T04:13:53.793Z,6.38
2022-09-25T04:16:22.574Z,6.20
2022-09-25T04:18:51.364Z,6.93
2022-09-25T04:21:19.606Z,6.55
2022-09-25T04:24:03.064Z,7.70
2022-09-25T04:26:31.627Z,7.40
2022-09-25T04:29:01.698Z,6.63
2022-09-25T04:31:29.979Z,8.82
2022-09-25T04:33:57.319Z,8.88
2022-09-25T04:36:25.564Z,8.80
2022-09-25T04:38:55.109Z,8.32
2022-09-25T04:41:23.252Z,8.60
2022-09-25T04:43:51.384Z,8.10
2022-09-25T04:46:22.438Z,8.98
2022-09-25T04:48:51.244Z,10.55
2022-09-25T04:51:19.801Z,9.60
2022-09-25T04:53:47.927Z,10.75
2022-09-25T04:56:17.461Z,10.40
2022-09-25T04:58:47.463Z,10.63
2022-09-25T05:01:16.496Z,10.90
2022-09-25T05:03:44.932Z,10.38
2022-09-25T05:06:13.093Z,11.38
2022-09-25T05:08:41.176Z,11.10
2022-09-25T05:11:09.363Z,11.40
2022-09-25T05:13:38.856Z,11.82
2022-09-25T05:16:07.293Z,10.30
2022-09-25T05:18:35.427Z,10.35
2022-09-25T05:21:05.088Z,9.60
2022-09-25T05:23:33.261Z,9.20
2022-09-25T05:26:02.408Z,8.93
2022-09-25T05:28:31.135Z,8.65
2022-09-25T05:31:03.861Z,8.23
2022-09-25T05:33:33.186Z,7.75
2022-09-25T05:36:02.749Z,8.45
2022-09-25T05:38:32.967Z,7.85
2022-09-25T05:41:04.458Z,9.35
2022-09-25T05:43:33.120Z,9.15
2022-09-25T05:46:02.825Z,8.88
2022-09-25T05:48:31.017Z,8.20
2022-09-25T05:51:00.270Z,8.13
2022-09-25T05:53:31.003Z,8.70
2022-09-25T05:56:00.673Z,8.65
2022-09-25T05:58:30.719Z,9.20
2022-09-25T06:01:04.185Z,8.48
2022-09-25T06:03:32.693Z,8.35
2022-09-25T06:06:01.338Z,8.88
2022-09-25T06:08:31.612Z,8.05
2022-09-25T06:11:00.790Z,8.68
2022-09-25T06:13:31.302Z,8.70
2022-09-25T06:16:00.052Z,8.85
2022-09-25T06:18:29.626Z,9.30
2022-09-25T06:21:02.623Z,9.10
2022-09-25T06:23:31.592Z,9.52
2022-09-25T06:26:03.773Z,9.50
2022-09-25T06:28:32.234Z,8.07
2022-09-25T06:31:02.238Z,9.25
2022-09-25T06:33:32.479Z,10.13
2022-09-25T06:36:02.228Z,9.15
2022-09-25T06:38:30.471Z,9.82
2022-09-25T06:41:00.799Z,9.90
2022-09-25T06:43:30.320Z,11.30
2022-09-25T06:46:02.463Z,10.60
2022-09-25T06:48:32.323Z,10.85
2022-09-25T06:51:02.427Z,10.23
2022-09-25T06:53:31.647Z,9.43
2022-09-25T06:56:00.881Z,11.15
2022-09-25T06:58:30.670Z,11.00
2022-09-25T07:00:59.771Z,10.80
2022-09-25T07:03:45.437Z,9.90
2022-09-25T07:06:17.088Z,9.57
2022-09-25T07:08:46.388Z,9.45
2022-09-25T07:11:16.388Z,8.82
2022-09-25T07:13:45.053Z,9.15
2022-09-25T07:16:15.219Z,8.85
2022-09-25T07:18:43.990Z,8.82
2022-09-25T07:21:15.135Z,9.73
2022-09-25T07:23:43.865Z,8.80
2022-09-25T07:26:13.991Z,9.88
2022-09-25T07:28:43.768Z,10.88
2022-09-25T07:31:14.091Z,10.38
2022-09-25T07:33:42.317Z,11.18
2022-09-25T07:36:10.484Z,11.07
2022-09-25T07:38:40.544Z,11.35
2022-09-25T07:41:11.203Z,10.63
2022-09-25T07:43:40.675Z,11.50
2022-09-25T07:46:08.856Z,10.10
2022-09-25T07:48:37.435Z,10.18
2022-09-25T07:51:07.857Z,8.30
2022-09-25T07:53:35.968Z,8.57
2022-09-25T07:56:07.186Z,9.48
2022-09-25T07:58:36.348Z,9.63
2022-09-25T08:01:06.470Z,9.40
2022-09-25T08:03:35.094Z,9.15
2022-09-25T08:06:04.885Z,9.77
2022-09-25T08:08:34.584Z,10.73
2022-09-25T08:11:03.491Z,10.73
2022-09-25T08:13:34.317Z,10.53
2022-09-25T08:16:04.387Z,10.00
2022-09-25T08:18:32.728Z,10.33
2022-09-25T08:21:03.306Z,9.70
2022-09-25T08:23:31.569Z,10.50
2022-09-25T08:26:00.145Z,9.10
2022-09-25T08:28:28.941Z,9.57
2022-09-25T08:30:59.393Z,8.90
2022-09-25T08:33:27.683Z,8.90
2022-09-25T08:35:57.652Z,9.20
2022-09-25T08:38:26.452Z,8.43
2022-09-25T08:40:59.632Z,8.30
2022-09-25T08:43:28.915Z,9.20
2022-09-25T08:46:19.118Z,8.40
2022-09-25T08:49:06.281Z,9.70
2022-09-25T08:51:38.617Z,7.77
2022-09-25T08:54:07.382Z,8.13
2022-09-25T08:56:37.618Z,7.37
2022-09-25T08:59:12.189Z,8.03
2022-09-25T09:01:53.492Z,7.27
2022-09-25T09:04:28.171Z,7.03
2022-09-25T09:07:25.110Z,8.33
2022-09-25T09:09:54.527Z,8.30
2022-09-25T09:12:29.212Z,7.47
2022-09-25T09:15:08.044Z,6.83
2022-09-25T09:17:44.507Z,7.33
2022-09-25T09:20:19.293Z,8.47
2022-09-25T09:22:51.003Z,9.50
2022-09-25T09:25:32.925Z,9.83
2022-09-25T09:28:19.212Z,8.10
2022-09-25T09:30:54.657Z,9.33
2022-09-25T09:33:41.608Z,10.20
2022-09-25T09:36:19.178Z,8.50
2022-09-25T09:38:55.180Z,8.60
2022-09-25T09:41:36.209Z,9.03
2022-09-25T09:44:25.569Z,8.20
2022-09-25T09:47:02.942Z,7.37
2022-09-25T09:49:38.739Z,7.03
2022-09-25T09:52:12.744Z,6.67
2022-09-25T09:54:45.896Z,6.60
2022-09-25T09:57:19.751Z,6.07
2022-09-25T09:59:53.482Z,6.40
2022-09-25T10:02:35.872Z,5.73
2022-09-25T10:05:11.051Z,5.07
2022-09-25T10:07:43.127Z,5.70
2022-09-25T10:10:15.208Z,5.00
2022-09-25T10:12:47.399Z,5.53
2022-09-25T10:15:20.597Z,5.60
2022-09-25T10:17:49.247Z,6.10
2022-09-25T10:20:21.994Z,6.40
2022-09-25T10:22:56.464Z,6.10
2022-09-25T10:25:38.246Z,7.00
2022-09-25T10:28:29.020Z,6.13
2022-09-25T10:30:59.010Z,7.53
2022-09-25T10:33:29.182Z,6.57
2022-09-25T10:35:58.865Z,7.07
2022-09-25T10:38:41.529Z,6.80
2022-09-25T10:41:13.197Z,7.10
2022-09-25T10:43:55.327Z,6.93
2022-09-25T10:46:43.707Z,8.70
2022-09-25T10:49:34.952Z,8.10
2022-09-25T10:52:07.385Z,8.07
2022-09-25T10:54:41.891Z,7.43
2022-09-25T10:57:18.699Z,8.90
2022-09-25T10:59:50.237Z,6.93
2022-09-25T11:02:32.768Z,8.57
2022-09-25T11:05:01.938Z,8.07
2022-09-25T11:07:33.023Z,8.87
2022-09-25T11:10:01.219Z,8.60
2022-09-25T11:12:30.535Z,8.37
2022-09-25T11:15:02.125Z,8.20
2022-09-25T11:17:33.720Z,7.87
2022-09-25T11:20:20.636Z,7.43
2022-09-25T11:22:56.875Z,7.37
2022-09-25T11:25:32.148Z,7.83
2022-09-25T11:28:06.917Z,8.17
2022-09-25T11:30:42.446Z,7.63
2022-09-25T11:33:17.809Z,7.33
2022-09-25T11:35:51.535Z,7.77
2022-09-25T11:38:44.236Z,7.80
2022-09-25T11:41:23.092Z,11.60
2022-09-25T11:43:59.769Z,10.73
2022-09-25T11:46:37.293Z,9.57
2022-09-25T11:49:15.768Z,10.70
2022-09-25T11:52:16.467Z,9.20
2022-09-25T11:55:08.461Z,8.67
2022-09-25T11:57:43.573Z,8.90
2022-09-25T12:00:21.352Z,8.27
2022-09-25T12:03:14.520Z,7.97
2022-09-25T12:05:54.157Z,8.83
2022-09-25T12:08:33.752Z,9.73
2022-09-25T12:11:12.644Z,8.50
2022-09-25T12:13:49.251Z,8.93
2022-09-25T12:16:23.007Z,9.20
2022-09-25T12:19:02.715Z,11.23
2022-09-25T12:21:39.803Z,12.30
2022-09-25T12:24:17.228Z,10.60
2022-09-25T12:26:54.295Z,9.17
2022-09-25T12:29:36.132Z,9.50
2022-09-25T12:32:10.346Z,8.90
2022-09-25T12:34:59.951Z,8.63
2022-09-25T12:37:35.162Z,8.13
2022-09-25T12:40:12.553Z,9.93
2022-09-25T12:42:48.156Z,11.57
2022-09-25T12:45:23.005Z,9.98
2022-09-25T12:48:04.175Z,11.77
2022-09-25T12:50:36.282Z,13.50
2022-09-25T12:53:14.924Z,12.43
2022-09-25T12:55:47.354Z,12.82
2022-09-25T12:58:24.458Z,15.50
2022-09-25T13:00:59.189Z,15.27
2022-09-25T13:03:37.426Z,13.32
2022-09-25T13:06:11.388Z,16.25
2022-09-25T13:08:47.575Z,19.85
2022-09-25T13:11:22.393Z,18.20
2022-09-25T13:13:55.305Z,16.98
2022-09-25T13:16:23.642Z,14.40
2022-09-25T13:19:11.527Z,14.85
2022-09-25T13:21:41.914Z,14.35
2022-09-25T13:24:15.972Z,12.40
2022-09-25T13:26:47.744Z,12.55
2022-09-25T13:29:28.089Z,11.90
2022-09-25T13:32:05.369Z,12.45
2022-09-25T13:34:38.544Z,10.93
2022-09-25T13:37:10.237Z,11.23
2022-09-25T13:39:59.371Z,11.48
2022-09-25T13:42:30.941Z,11.45
2022-09-25T13:45:07.967Z,10.95
2022-09-25T13:48:07.265Z,9.85
2022-09-25T13:50:46.893Z,10.35
2022-09-25T13:53:24.933Z,11.40
2022-09-25T13:56:14.912Z,9.13
2022-09-25T13:59:23.315Z,8.07
2022-09-25T14:01:59.956Z,10.80
2022-09-25T14:04:36.128Z,12.83
2022-09-25T14:07:14.412Z,13.10
2022-09-25T14:09:48.629Z,10.97
2022-09-25T14:12:29.129Z,12.77
2022-09-25T14:15:01.479Z,13.80
2022-09-25T14:17:33.216Z,13.25
2022-09-25T14:20:04.515Z,13.77
2022-09-25T14:22:46.539Z,12.32
2022-09-25T14:25:33.186Z,13.18
2022-09-25T14:28:02.611Z,10.52
2022-09-25T14:30:33.085Z,10.10
2022-09-25T14:33:18.014Z,11.05
2022-09-25T14:35:53.750Z,10.57
2022-09-25T14:38:44.523Z,10.23
2022-09-25T14:41:34.856Z,9.48
2022-09-25T14:44:25.915Z,8.73
2022-09-25T14:46:56.938Z,7.93
2022-09-25T14:49:30.230Z,8.75
2022-09-25T14:52:03.481Z,7.35
2022-09-25T14:54:38.078Z,7.50
2022-09-25T14:57:09.056Z,8.48
2022-09-25T14:59:42.259Z,7.50
2022-09-25T15:02:18.344Z,6.88
2022-09-25T15:04:47.905Z,6.78
2022-09-25T15:07:17.922Z,7.15
2022-09-25T15:09:51.095Z,6.32
2022-09-25T15:12:21.943Z,6.78
2022-09-25T15:15:07.620Z,5.57
2022-09-25T15:17:45.323Z,5.72
2022-09-25T15:20:19.517Z,5.15
2022-09-25T15:22:53.974Z,5.80
2022-09-25T15:25:25.780Z,5.60
2022-09-25T15:27:54.318Z,4.88
2022-09-25T15:30:27.175Z,4.88
2022-09-25T15:33:00.751Z,5.10
2022-09-25T15:35:32.339Z,4.50
2022-09-25T15:38:07.139Z,4.63
2022-09-25T15:40:35.504Z,4.90
2022-09-25T15:43:03.908Z,5.38
2022-09-25T15:45:45.840Z,5.15
2022-09-25T15:48:24.476Z,6.03
2022-09-25T15:50:55.464Z,5.78
2022-09-25T15:53:27.296Z,5.85
2022-09-25T15:56:15.102Z,6.43
2022-09-25T15:58:47.091Z,5.70
2022-09-25T16:01:36.866Z,6.40
2022-09-25T16:04:25.571Z,6.22
2022-09-25T16:06:55.612Z,6.53
2022-09-25T16:09:30.374Z,6.30
2022-09-25T16:12:20.359Z,7.70
2022-09-25T16:14:49.437Z,7.90
2022-09-25T16:17:24.221Z,7.57
2022-09-25T16:20:03.689Z,9.88
2022-09-25T16:22:39.183Z,10.60
2022-09-25T16:25:18.246Z,10.30
2022-09-25T16:27:47.838Z,10.98
2022-09-25T16:30:22.327Z,8.55
2022-09-25T16:32:53.331Z,7.90
2022-09-25T16:35:26.037Z,7.75
2022-09-25T16:37:55.612Z,8.38
2022-09-25T16:40:28.980Z,9.45
2022-09-25T16:42:59.440Z,9.57
2022-09-25T16:45:29.810Z,14.00
2022-09-25T16:47:59.427Z,15.65
2022-09-25T16:50:32.135Z,15.60
2022-09-25T16:53:03.587Z,13.20
2022-09-25T16:55:34.332Z,11.32
2022-09-25T16:58:04.207Z,14.38
2022-09-25T17:00:32.403Z,16.30
2022-09-25T17:03:01.963Z,18.77
2022-09-25T17:05:32.327Z,18.30
2022-09-25T17:08:14.672Z,12.55
2022-09-25T17:10:43.019Z,14.05
2022-09-25T17:13:14.799Z,13.00
2022-09-25T17:15:43.117Z,13.25
2022-09-25T17:18:17.548Z,12.73
2022-09-25T17:20:46.183Z,12.80
2022-09-25T17:23:17.732Z,13.35
2022-09-25T17:25:49.220Z,12.15
2022-09-25T17:28:17.918Z,11.85
2022-09-25T17:30:46.706Z,12.35
2022-09-25T17:33:17.896Z,12.63
2022-09-25T17:35:50.026Z,12.43
2022-09-25T17:38:20.139Z,10.57
2022-09-25T17:40:52.367Z,11.40
2022-09-25T17:43:21.287Z,11.80
2022-09-25T17:45:51.551Z,12.23
2022-09-25T17:48:24.081Z,12.30
2022-09-25T17:50:53.651Z,13.02
2022-09-25T17:53:25.133Z,12.55
2022-09-25T17:55:54.102Z,13.15
2022-09-25T17:58:25.656Z,14.93
2022-09-25T18:00:55.109Z,13.93
2022-09-25T18:03:23.455Z,14.30
2022-09-25T18:05:51.543Z,15.07
2022-09-25T18:08:21.377Z,13.77
2022-09-25T18:10:55.748Z,14.32
2022-09-25T18:13:24.537Z,18.35
2022-09-25T18:15:55.602Z,18.52
2022-09-25T18:18:23.745Z,20.23
2022-09-25T18:21:09.899Z,19.17
2022-09-25T18:23:39.086Z,18.50
2022-09-25T18:26:10.666Z,18.42
2022-09-25T18:28:39.145Z,19.65
2022-09-25T18:31:08.454Z,20.83
2022-09-25T18:33:37.333Z,19.05
2022-09-25T18:36:06.100Z,24.80
2022-09-25T18:38:36.873Z,25.00
2022-09-25T18:41:05.164Z,26.25
2022-09-25T18:43:35.227Z,27.75
2022-09-25T18:46:07.151Z,25.05
2022-09-25T18:48:37.482Z,24.65
2022-09-25T18:51:07.812Z,26.27
2022-09-25T18:53:37.651Z,25.00
2022-09-25T18:56:06.665Z,22.50
2022-09-25T18:58:36.554Z,21.90
2022-09-25T19:01:07.742Z,20.35
2022-09-25T19:03:40.754Z,18.15
2022-09-25T19:06:09.567Z,18.83
2022-09-25T19:08:39.171Z,19.92
2022-09-25T19:11:13.919Z,18.40
2022-09-25T19:13:47.304Z,19.38
2022-09-25T19:16:21.325Z,18.25
2022-09-25T19:18:53.265Z,18.77
2022-09-25T19:21:22.672Z,18.92
2022-09-25T19:23:54.554Z,19.38
2022-09-25T19:26:26.823Z,18.90
2022-09-25T19:28:56.617Z,19.20
2022-09-25T19:31:26.625Z,19.88
2022-09-25T19:33:56.311Z,21.92
2022-09-25T19:36:26.965Z,21.00
2022-09-25T19:38:57.720Z,22.20
2022-09-25T19:41:29.877Z,20.85
2022-09-25T19:44:01.613Z,24.45
2022-09-25T19:46:34.098Z,27.70
2022-09-25T19:49:02.323Z,29.30
2022-09-25T19:51:30.749Z,32.70
2022-09-25T19:54:01.507Z,29.10
2022-09-25T19:56:29.824Z,27.95
2022-09-25T19:58:59.358Z,30.08
2022-09-25T20:01:30.428Z,31.27
2022-09-25T20:03:58.817Z,32.65
2022-09-25T20:06:28.188Z,31.00
2022-09-25T20:08:59.080Z,30.83
2022-09-25T20:11:27.730Z,31.40
2022-09-25T20:13:57.239Z,30.00
2022-09-25T20:16:29.135Z,30.48
2022-09-25T20:19:00.245Z,32.78
2022-09-25T20:21:30.157Z,34.67
2022-09-25T20:24:00.108Z,35.38
2022-09-25T20:26:29.497Z,35.65
2022-09-25T20:28:59.474Z,30.40
2022-09-25T20:31:31.301Z,29.77
2022-09-25T20:33:59.647Z,31.15
2022-09-25T20:36:28.383Z,32.72
2022-09-25T20:38:57.942Z,30.55
2022-09-25T20:41:28.512Z,31.70
2022-09-25T20:43:57.843Z,32.58
2022-09-25T20:46:26.809Z,31.35
2022-09-25T20:48:58.539Z,30.40
2022-09-25T20:51:28.568Z,30.95
2022-09-25T20:53:58.300Z,29.92
2022-09-25T20:56:27.228Z,28.95
2022-09-25T20:58:56.706Z,27.15
2022-09-25T21:01:27.417Z,28.30
2022-09-25T21:04:01.739Z,26.73
2022-09-25T21:06:32.596Z,27.20
2022-09-25T21:09:02.096Z,27.83
2022-09-25T21:11:32.540Z,27.60
2022-09-25T21:14:02.784Z,27.60
2022-09-25T21:16:33.809Z,27.02
2022-09-25T21:19:05.363Z,29.48
2022-09-25T21:21:34.677Z,27.48
2022-09-25T21:24:03.488Z,27.42
2022-09-25T21:26:33.169Z,27.67
2022-09-25T21:29:03.424Z,28.65
2022-09-25T21:31:36.638Z,28.17
2022-09-25T21:34:07.697Z,27.63
2022-09-25T21:36:35.823Z,27.73
2022-09-25T21:39:04.694Z,27.05
2022-09-25T21:41:33.084Z,28.02
2022-09-25T21:44:02.638Z,27.25
2022-09-25T21:46:31.402Z,25.80
2022-09-25T21:49:01.866Z,26.50
2022-09-25T21:51:33.721Z,25.70
2022-09-25T21:54:02.483Z,28.27
2022-09-25T21:56:32.733Z,24.73
2022-09-25T21:59:08.659Z,22.13
2022-09-25T22:01:39.918Z,22.77
2022-09-25T22:04:11.666Z,21.60
2022-09-25T22:06:43.752Z,21.10
2022-09-25T22:09:14.344Z,20.67
2022-09-25T22:11:43.574Z,20.20
2022-09-25T22:14:16.134Z,20.80
2022-09-25T22:16:46.326Z,23.52
2022-09-25T22:19:16.465Z,25.17
2022-09-25T22:21:47.454Z,20.83
2022-09-25T22:24:16.161Z,20.10
2022-09-25T22:26:46.081Z,19.83
2022-09-25T22:29:14.793Z,18.80
2022-09-25T22:31:44.396Z,21.60
2022-09-25T22:34:18.291Z,20.58
2022-09-25T22:36:48.781Z,20.27
2022-09-25T22:39:18.964Z,21.58
2022-09-25T22:41:51.457Z,21.08
2022-09-25T22:44:19.959Z,20.40
2022-09-25T22:46:48.144Z,22.05
2022-09-25T22:49:16.465Z,20.27
2022-09-25T22:51:44.768Z,21.50
2022-09-25T22:54:15.488Z,20.58
2022-09-25T22:56:44.138Z,20.50
2022-09-25T22:59:16.181Z,20.35
2022-09-25T23:01:47.995Z,20.65
2022-09-25T23:04:17.625Z,21.10
2022-09-25T23:06:46.405Z,21.10
2022-09-25T23:09:17.809Z,21.58
2022-09-25T23:11:46.593Z,20.15
2022-09-25T23:14:17.638Z,20.13
2022-09-25T23:16:46.717Z,21.05
2022-09-25T23:19:15.607Z,19.10
2022-09-25T23:21:44.016Z,19.17
2022-09-25T23:24:14.284Z,18.55
2022-09-25T23:26:43.948Z,17.63
2022-09-25T23:29:13.134Z,17.10
2022-09-25T23:31:42.359Z,17.30
2022-09-25T23:34:11.228Z,17.23
2022-09-25T23:36:39.743Z,16.02
2022-09-25T23:39:09.938Z,16.58
2022-09-25T23:41:39.634Z,16.00
2022-09-25T23:44:11.542Z,15.70
2022-09-25T23:46:42.067Z,15.63
2022-09-25T23:49:11.262Z,15.93
2022-09-25T23:51:39.809Z,15.88
2022-09-25T23:54:08.010Z,14.32
2022-09-25T23:56:37.158Z,15.00
2022-09-25T23:59:06.455Z,14.50
